Time;durP1;ratioP1;P1;durP2;ratioP2;P2;SDS_P1;SDS_P2;PMS_P1;PMS_P2;Temp;Humidity;BMP_temperature;BMP_pressure;BME280_temperature;BME280_humidity;BME280_pressure;Samples;Min_cycle;Max_cycle;Signal;HPM_P1;HPM_P2
2023/12/04 00:00:49;;;;;;;297.85;100.85;;;;;;;;;;5031481;28;20030;-82
2023/12/04 00:03:15;;;;;;;294.13;99.93;;;;;;;;;;5031849;28;20060;-82
2023/12/04 00:05:44;;;;;;;296.38;100.20;;;;;;;;;;5031335;28;20068;-81
2023/12/04 00:08:11;;;;;;;285.70;97.60;;;;;;;;;;5031077;28;20048;-81
2023/12/04 00:10:37;;;;;;;282.17;96.03;;;;;;;;;;5013655;28;20034;-82
2023/12/04 00:13:03;;;;;;;281.42;95.03;;;;;;;;;;5032274;28;20029;-82
2023/12/04 00:15:29;;;;;;;280.33;95.15;;;;;;;;;;5032600;28;20084;-81
2023/12/04 00:17:55;;;;;;;281.98;96.38;;;;;;;;;;5013391;28;20029;-82
2023/12/04 00:20:21;;;;;;;248.18;86.75;;;;;;;;;;5031538;28;20504;-82
2023/12/04 00:22:47;;;;;;;281.83;96.45;;;;;;;;;;5049435;28;20103;-82
2023/12/04 00:25:13;;;;;;;274.75;95.03;;;;;;;;;;5051611;28;20035;-82
2023/12/04 00:27:39;;;;;;;280.55;95.57;;;;;;;;;;5034573;28;20026;-82
2023/12/04 00:30:06;;;;;;;272.95;94.18;;;;;;;;;;5031547;28;20030;-82
2023/12/04 00:32:32;;;;;;;270.70;93.30;;;;;;;;;;5032899;28;20076;-83
2023/12/04 00:34:58;;;;;;;265.65;91.20;;;;;;;;;;5040738;28;20033;-82
2023/12/04 00:37:24;;;;;;;245.45;85.50;;;;;;;;;;5032924;28;20405;-82
2023/12/04 00:39:50;;;;;;;218.43;78.28;;;;;;;;;;5037092;28;20028;-82
2023/12/04 00:42:16;;;;;;;254.82;88.78;;;;;;;;;;5031080;28;20022;-82
2023/12/04 00:44:42;;;;;;;219.43;79.13;;;;;;;;;;5030744;28;20026;-82
2023/12/04 00:47:08;;;;;;;246.65;86.32;;;;;;;;;;5030763;28;20026;-84
2023/12/04 00:49:34;;;;;;;240.75;84.53;;;;;;;;;;5029452;28;20504;-82
2023/12/04 00:51:59;;;;;;;236.15;83.15;;;;;;;;;;5031847;28;20030;-82
2023/12/04 00:54:25;;;;;;;232.10;82.20;;;;;;;;;;5030799;28;20060;-82
2023/12/04 00:56:51;;;;;;;241.32;85.07;;;;;;;;;;5012811;28;20029;-83
2023/12/04 00:59:17;;;;;;;240.52;85.10;;;;;;;;;;5030745;28;20541;-82
2023/12/04 01:01:43;;;;;;;247.52;87.10;;;;;;;;;;5030157;28;20032;-83
2023/12/04 01:04:09;;;;;;;240.73;84.70;;;;;;;;;;5030366;28;20393;-82
2023/12/04 01:06:36;;;;;;;234.20;82.82;;;;;;;;;;5030499;28;20022;-82
2023/12/04 01:09:02;;;;;;;231.02;80.68;;;;;;;;;;5031100;28;20041;-82
2023/12/04 01:11:28;;;;;;;213.23;76.93;;;;;;;;;;5030684;28;20097;-82
2023/12/04 01:13:54;;;;;;;237.07;83.25;;;;;;;;;;5030225;28;20038;-82
2023/12/04 01:16:20;;;;;;;246.10;86.38;;;;;;;;;;5030242;28;20447;-81
2023/12/04 01:18:46;;;;;;;247.13;86.13;;;;;;;;;;5029996;28;20076;-81
2023/12/04 01:21:12;;;;;;;234.10;83.25;;;;;;;;;;5030448;28;20049;-82
2023/12/04 01:23:38;;;;;;;243.07;85.20;;;;;;;;;;5029830;28;20071;-82
2023/12/04 01:26:04;;;;;;;232.13;81.68;;;;;;;;;;5030369;28;20029;-82
2023/12/04 01:28:31;;;;;;;225.25;79.88;;;;;;;;;;5030752;28;20037;-82
2023/12/04 01:30:57;;;;;;;243.07;83.88;;;;;;;;;;5029861;28;20432;-82
2023/12/04 01:33:22;;;;;;;249.20;85.32;;;;;;;;;;5029692;28;20285;-82
2023/12/04 01:35:48;;;;;;;240.63;85.03;;;;;;;;;;5011629;28;20022;-82
2023/12/04 01:38:14;;;;;;;218.98;78.28;;;;;;;;;;5030113;28;20044;-82
2023/12/04 01:40:41;;;;;;;218.70;79.38;;;;;;;;;;5029822;28;20021;-83
2023/12/04 01:43:07;;;;;;;241.27;83.97;;;;;;;;;;5030130;28;20466;-82
2023/12/04 01:45:33;;;;;;;238.10;82.88;;;;;;;;;;5030605;28;20100;-82
2023/12/04 01:47:59;;;;;;;234.82;81.78;;;;;;;;;;5030376;28;20103;-82
2023/12/04 01:50:25;;;;;;;233.32;82.03;;;;;;;;;;5029424;28;20409;-82
2023/12/04 01:52:52;;;;;;;239.88;84.35;;;;;;;;;;5029722;28;20116;-82
2023/12/04 01:55:19;;;;;;;238.40;83.95;;;;;;;;;;5029386;28;20132;-82
2023/12/04 01:57:45;;;;;;;238.30;83.47;;;;;;;;;;5029338;28;20478;-82
2023/12/04 02:00:12;;;;;;;237.35;83.03;;;;;;;;;;5029103;28;20021;-82
2023/12/04 02:02:38;;;;;;;234.23;82.50;;;;;;;;;;5028305;28;20033;-82
2023/12/04 02:05:06;;;;;;;225.73;79.95;;;;;;;;;;5029478;28;20048;-82
2023/12/04 02:07:32;;;;;;;219.85;77.47;;;;;;;;;;5030339;28;20029;-82
2023/12/04 02:09:58;;;;;;;230.57;81.13;;;;;;;;;;5029083;28;20105;-83
2023/12/04 02:12:24;;;;;;;225.43;79.82;;;;;;;;;;5029167;28;20029;-83
2023/12/04 02:14:50;;;;;;;227.75;80.65;;;;;;;;;;5029031;28;20025;-83
2023/12/04 02:17:17;;;;;;;228.57;80.35;;;;;;;;;;5029357;28;20029;-82
2023/12/04 02:19:43;;;;;;;227.60;79.88;;;;;;;;;;5029100;28;20026;-84
2023/12/04 02:22:09;;;;;;;225.70;80.18;;;;;;;;;;5042112;28;20033;-83
2023/12/04 02:24:35;;;;;;;216.05;76.72;;;;;;;;;;5049093;28;20029;-83
2023/12/04 02:27:27;;;;;;;214.13;76.43;;;;;;;;;;5049699;28;20052;-84
2023/12/04 02:29:55;;;;;;;221.88;78.60;;;;;;;;;;5045911;28;20671;-82
2023/12/04 02:32:22;;;;;;;221.68;78.70;;;;;;;;;;5030044;28;20022;-82
2023/12/04 02:34:49;;;;;;;228.10;80.75;;;;;;;;;;5028964;28;20032;-82
2023/12/04 02:37:15;;;;;;;239.20;84.10;;;;;;;;;;5011310;28;20040;-82
2023/12/04 02:39:42;;;;;;;240.15;83.95;;;;;;;;;;5028860;28;20029;-82
2023/12/04 02:42:08;;;;;;;72.95;43.72;;;;;;;;;;5028855;28;20041;-82
2023/12/04 02:44:34;;;;;;;131.65;56.15;;;;;;;;;;5028648;28;20018;-83
2023/12/04 02:47:00;;;;;;;214.20;76.22;;;;;;;;;;5029437;28;20025;-82
2023/12/04 02:49:26;;;;;;;220.02;77.80;;;;;;;;;;5028901;28;20142;-85
2023/12/04 02:51:52;;;;;;;194.82;72.20;;;;;;;;;;5013006;28;20037;-84
2023/12/04 02:54:18;;;;;;;226.38;79.88;;;;;;;;;;5028554;28;20508;-82
2023/12/04 02:56:44;;;;;;;242.68;84.60;;;;;;;;;;5028083;28;20029;-83
2023/12/04 02:59:10;;;;;;;219.57;77.57;;;;;;;;;;5028583;28;20024;-81
2023/12/04 03:01:36;;;;;;;233.80;81.68;;;;;;;;;;5027956;28;20120;-81
2023/12/04 03:04:02;;;;;;;229.68;80.25;;;;;;;;;;5012598;28;20048;-80
2023/12/04 03:06:28;;;;;;;224.02;78.63;;;;;;;;;;5028351;28;20029;-86
2023/12/04 03:08:54;;;;;;;217.25;77.05;;;;;;;;;;5026651;28;20041;-85
2023/12/04 03:11:20;;;;;;;212.23;75.85;;;;;;;;;;5026918;28;20040;-86
2023/12/04 03:13:46;;;;;;;230.23;80.13;;;;;;;;;;5026145;28;20045;-83
2023/12/04 03:16:16;;;;;;;229.75;80.93;;;;;;;;;;5015564;28;20057;-85
2023/12/04 03:18:42;;;;;;;231.75;80.85;;;;;;;;;;5027108;28;20044;-84
2023/12/04 03:21:08;;;;;;;224.85;79.25;;;;;;;;;;5027800;28;20029;-84
2023/12/04 03:23:34;;;;;;;221.88;78.13;;;;;;;;;;5010510;28;20116;-85
2023/12/04 03:26:00;;;;;;;219.20;76.43;;;;;;;;;;5028033;28;20021;-86
2023/12/04 03:28:26;;;;;;;217.10;76.60;;;;;;;;;;5027496;28;20080;-85
2023/12/04 03:30:52;;;;;;;221.82;77.85;;;;;;;;;;5027037;28;20025;-85
2023/12/04 03:33:18;;;;;;;223.25;78.35;;;;;;;;;;5009807;28;20449;-85
2023/12/04 03:35:44;;;;;;;213.35;76.60;;;;;;;;;;5015016;28;20029;-85
2023/12/04 03:38:10;;;;;;;219.55;77.85;;;;;;;;;;5027968;28;20041;-84
2023/12/04 03:40:36;;;;;;;212.25;75.90;;;;;;;;;;5027119;28;20045;-82
2023/12/04 03:43:02;;;;;;;207.32;74.30;;;;;;;;;;5028440;28;20095;-83
2023/12/04 03:45:28;;;;;;;206.90;74.07;;;;;;;;;;5011101;28;20084;-82
2023/12/04 03:47:55;;;;;;;197.20;71.53;;;;;;;;;;5009872;28;20127;-87
2023/12/04 03:50:20;;;;;;;215.65;76.45;;;7.60;99.90;;;;;;5028038;28;20075;-84
2023/12/04 03:52:46;;;;;;;213.20;75.82;;;7.60;99.90;;;;;;5027624;28;20030;-83
2023/12/04 03:55:11;;;;;;;212.23;76.18;;;8.60;99.90;;;;;;5028005;28;20442;-82
2023/12/04 03:57:38;;;;;;;216.10;77.22;;;;;;;;;;5010184;28;20036;-86
2023/12/04 04:00:04;;;;;;;206.85;74.35;;;8.50;99.90;;;;;;5027777;28;20113;-82
2023/12/04 04:02:30;;;;;;;209.45;75.03;;;8.60;99.90;;;;;;5028043;28;20103;-83
2023/12/04 04:04:55;;;;;;;209.25;74.80;;;8.40;99.90;;;;;;5027125;28;20026;-81
2023/12/04 04:07:21;;;;;;;218.20;76.93;;;8.50;99.90;;;;;;5027428;28;20476;-82
2023/12/04 04:09:47;;;;;;;209.93;75.35;;;;;;;;;;5027375;28;20025;-84
2023/12/04 04:12:13;;;;;;;208.23;74.95;;;8.30;99.90;;;;;;5027871;28;20079;-83
2023/12/04 04:14:38;;;;;;;200.70;73.35;;;7.50;99.90;;;;;;5022994;28;20021;-82
2023/12/04 04:17:04;;;;;;;205.05;73.82;;;7.90;99.90;;;;;;5027773;28;20140;-82
2023/12/04 04:19:29;;;;;;;211.07;75.97;;;8.40;99.90;;;;;;5028538;28;20104;-83
2023/12/04 04:21:55;;;;;;;215.27;76.65;;;8.50;99.90;;;;;;5038635;28;20029;-81
2023/12/04 04:24:21;;;;;;;221.30;78.97;;;8.10;99.90;;;;;;5042070;28;20025;-83
2023/12/04 04:26:46;;;;;;;218.77;77.70;;;6.70;99.90;;;;;;5031269;28;20093;-83
2023/12/04 04:29:12;;;;;;;217.93;77.70;;;10.10;99.90;;;;;;5031207;28;20140;-81
2023/12/04 04:31:38;;;;;;;218.93;78.03;;;7.50;99.90;;;;;;5013348;28;20022;-83
2023/12/04 04:34:04;;;;;;;204.50;73.78;;;;;;;;;;5013374;28;20026;-82
2023/12/04 04:36:29;;;;;;;215.80;76.47;;;8.20;99.90;;;;;;5031401;28;20396;-82
2023/12/04 04:38:55;;;;;;;202.93;73.20;;;7.80;99.90;;;;;;5029658;28;20091;-83
2023/12/04 04:41:21;;;;;;;217.73;77.78;;;9.00;99.90;;;;;;5034171;28;20343;-82
2023/12/04 04:43:46;;;;;;;216.75;78.53;;;7.80;99.90;;;;;;5030838;28;20440;-83
2023/12/04 04:46:12;;;;;;;216.50;78.35;;;6.80;99.90;;;;;;5031010;28;20028;-81
2023/12/04 04:48:38;;;;;;;213.70;76.68;;;;;;;;;;5030509;28;20033;-82
2023/12/04 04:51:04;;;;;;;202.48;72.97;;;7.90;99.90;;;;;;5030863;28;20026;-84
2023/12/04 04:53:29;;;;;;;204.48;73.45;;;6.70;99.90;;;;;;5013646;28;20034;-81
2023/12/04 04:55:55;;;;;;;206.48;73.75;;;8.20;99.90;;;;;;5031437;28;20045;-81
2023/12/04 04:58:21;;;;;;;211.48;74.28;;;8.20;99.90;;;;;;5031187;28;20030;-82
2023/12/04 05:00:47;;;;;;;180.88;67.20;;;;;;;;;;5030849;28;20497;-88
2023/12/04 05:03:13;;;;;;;176.15;66.43;;;8.10;99.90;;;;;;5030670;28;20041;-88
2023/12/04 05:05:38;;;;;;;167.93;63.90;;;8.60;99.90;;;;;;5031415;28;20017;-88
2023/12/04 05:08:04;;;;;;;170.27;64.13;;;;;;;;;;5030570;28;20150;-83
2023/12/04 05:10:30;;;;;;;161.65;62.33;;;8.60;99.90;;;;;;5031817;28;20017;-84
2023/12/04 05:12:56;;;;;;;152.68;59.95;;;8.70;99.90;;;;;;5031133;28;20043;-88
2023/12/04 05:15:21;;;;;;;162.90;63.22;;;8.90;99.90;;;;;;5030999;28;20397;-86
2023/12/04 05:17:47;;;;;;;162.57;63.05;;;7.40;99.90;;;;;;5013095;28;20405;-88
2023/12/04 05:20:13;;;;;;;159.68;61.92;;;8.60;99.90;;;;;;5029878;28;20111;-85
2023/12/04 05:22:39;;;;;;;161.70;62.85;;;8.00;99.90;;;;;;5045415;28;20033;-88
2023/12/04 05:25:05;;;;;;;150.98;59.70;;;;;;;;;;5031315;28;20022;-82
2023/12/04 05:27:31;;;;;;;154.85;60.40;;;9.00;99.90;;;;;;5030958;28;20034;-87
2023/12/04 05:29:57;;;;;;;158.70;61.55;;;8.20;99.90;;;;;;5030229;28;20409;-88
2023/12/04 05:32:22;;;;;;;162.10;62.50;;;9.10;99.90;;;;;;5030375;28;20404;-88
2023/12/04 05:34:48;;;;;;;158.65;62.30;;;10.00;99.90;;;;;;5025667;28;20025;-89
2023/12/04 05:37:13;;;;;;;162.48;62.95;;;9.00;99.90;;;;;;5030427;28;20025;-81
2023/12/04 05:39:39;;;;;;;158.82;61.45;;;10.00;99.90;;;;;;5030796;28;20087;-84
2023/12/04 05:42:05;;;;;;;145.45;57.80;;;9.10;99.90;;;;;;5028483;28;20030;-83
2023/12/04 05:44:31;;;;;;;141.35;57.22;;;9.20;99.90;;;;;;5030737;28;20031;-82
2023/12/04 05:46:57;;;;;;;141.52;57.30;;;9.20;99.90;;;;;;5030058;28;20481;-82
2023/12/04 05:49:23;;;;;;;145.07;58.95;;;7.70;99.90;;;;;;5030534;28;20033;-82
2023/12/04 05:51:48;;;;;;;141.50;57.15;;;8.70;99.90;;;;;;5030454;28;20037;-84
2023/12/04 05:54:14;;;;;;;147.07;59.00;;;8.60;99.90;;;;;;5014014;28;20067;-83
2023/12/04 05:56:40;;;;;;;147.48;58.28;;;;;;;;;;5033760;28;20481;-82
2023/12/04 05:59:05;;;;;;;179.30;65.38;;;9.30;99.90;;;;;;5050016;28;20061;-82
2023/12/04 06:01:31;;;;;;;182.90;66.28;;;9.80;99.90;;;;;;5049862;28;20082;-87
2023/12/04 06:03:56;;;;;;;174.45;64.55;;;9.40;99.90;;;;;;5034075;28;20032;-83
2023/12/04 06:06:22;;;;;;;179.02;65.95;;;9.70;99.90;;;;;;5029972;28;20060;-82
2023/12/04 06:08:48;;;;;;;176.77;65.18;;;8.90;99.90;;;;;;5029722;28;20130;-82
2023/12/04 06:11:13;;;;;;;160.20;61.50;;;10.50;99.90;;;;;;5030041;28;20032;-81
2023/12/04 06:13:39;;;;;;;171.98;63.83;;;9.20;99.90;;;;;;5029892;28;20025;-82
2023/12/04 06:16:05;;;;;;;168.15;62.70;;;9.60;99.90;;;;;;5030899;28;20064;-82
2023/12/04 06:18:31;;;;;;;169.20;63.00;;;9.60;99.90;;;;;;5030021;28;20104;-82
2023/12/04 06:20:56;;;;;;;170.20;63.05;;;8.40;99.90;;;;;;5029450;28;20409;-82
2023/12/04 06:23:22;;;;;;;174.48;64.70;;;8.90;99.90;;;;;;5029819;28;20021;-82
2023/12/04 06:25:48;;;;;;;169.82;63.40;;;11.10;99.90;;;;;;5029845;28;20026;-83
2023/12/04 06:28:14;;;;;;;166.45;62.47;;;9.40;99.90;;;;;;5029507;28;20095;-82
2023/12/04 06:30:40;;;;;;;154.55;60.05;;;10.80;99.90;;;;;;5029729;28;20017;-82
2023/12/04 06:33:06;;;;;;;147.70;58.50;;;9.70;99.90;;;;;;5012780;28;20099;-82
2023/12/04 06:35:32;;;;;;;150.52;58.88;;;9.70;99.90;;;;;;5029609;28;20532;-82
2023/12/04 06:38:02;;;;;;;163.73;61.38;;;8.20;99.90;;;;;;5029688;28;20029;-82
2023/12/04 06:40:28;;;;;;;160.95;60.80;;;8.60;99.90;;;;;;5029629;28;20224;-82
2023/12/04 06:42:54;;;;;;;162.32;61.92;;;8.50;99.90;;;;;;5029599;28;20074;-82
2023/12/04 06:45:20;;;;;;;163.20;62.03;;;10.80;99.90;;;;;;5029606;28;20021;-82
2023/12/04 06:47:49;;;;;;;146.63;57.80;;;9.20;99.90;;;;;;5028979;28;20033;-82
2023/12/04 06:50:15;;;;;;;156.85;61.70;;;;;;;;;;5029587;28;20077;-82
2023/12/04 06:52:41;;;;;;;150.10;58.97;;;10.90;99.90;;;;;;5029292;28;20485;-82
2023/12/04 06:55:08;;;;;;;157.80;60.30;;;9.80;99.90;;;;;;5030223;28;20104;-83
2023/12/04 06:57:33;;;;;;;153.43;59.78;;;9.20;99.90;;;;;;5029325;28;20036;-82
2023/12/04 06:59:59;;;;;;;151.32;58.97;;;6.30;99.90;;;;;;5029337;28;20287;-82
2023/12/04 07:02:25;;;;;;;156.43;61.17;;;9.80;99.90;;;;;;5029136;28;20113;-81
2023/12/04 07:04:50;;;;;;;153.68;60.60;;;10.00;99.90;;;;;;5029097;28;20030;-82
2023/12/04 07:07:16;;;;;;;143.70;59.22;;;11.10;99.90;;;;;;5029250;28;20020;-82
2023/12/04 07:09:41;;;;;;;148.52;56.90;;;10.20;99.90;;;;;;5029161;28;20065;-82
2023/12/04 07:12:07;;;;;;;151.50;59.47;;;9.40;99.90;;;;;;5029994;28;20032;-82
2023/12/04 07:14:33;;;;;;;150.02;58.78;;;10.00;99.90;;;;;;5029141;28;20056;-82
2023/12/04 07:17:00;;;;;;;159.02;61.92;;;8.40;99.90;;;;;;5029090;28;20079;-83
2023/12/04 07:19:26;;;;;;;157.70;61.17;;;;;;;;;;5029017;28;20021;-82
2023/12/04 07:21:52;;;;;;;143.57;58.30;;;9.50;99.90;;;;;;5029027;28;20109;-82
2023/12/04 07:24:18;;;;;;;156.05;61.20;;;8.60;99.90;;;;;;5028971;28;20049;-82
2023/12/04 07:26:44;;;;;;;141.52;57.35;;;9.40;99.90;;;;;;5028994;28;20456;-82
2023/12/04 07:29:10;;;;;;;150.70;58.15;;;;;;;;;;5029674;28;20041;-82
2023/12/04 07:31:37;;;;;;;137.90;55.95;;;10.20;99.90;;;;;;5029285;28;20108;-82
2023/12/04 07:34:03;;;;;;;142.35;57.58;;;10.10;99.90;;;;;;5028911;28;20037;-82
2023/12/04 07:36:29;;;;;;;149.73;59.33;;;10.30;99.90;;;;;;5028932;28;20104;-82
2023/12/04 07:38:54;;;;;;;161.13;59.22;;;9.60;99.90;;;;;;5028956;28;20026;-82
2023/12/04 07:41:21;;;;;;;152.48;61.08;;;8.90;99.90;;;;;;5028856;28;20083;-82
2023/12/04 07:43:47;;;;;;;146.77;58.25;;;10.40;99.90;;;;;;5028784;28;20098;-82
2023/12/04 07:46:13;;;;;;;140.48;56.67;;;;;;;;;;5028645;28;20440;-83
2023/12/04 07:48:39;;;;;;;136.45;55.53;;;10.30;99.90;;;;;;5029527;28;20026;-83
2023/12/04 07:51:06;;;;;;;136.35;55.67;;;10.40;99.90;;;;;;5028773;28;20490;-83
2023/12/04 07:53:32;;;;;;;150.85;59.13;;;11.30;99.90;;;;;;5028657;28;20425;-83
2023/12/04 07:55:58;;;;;;;149.90;59.33;;;;;;;;;;5028687;28;20018;-83
2023/12/04 07:58:24;;;;;;;151.23;57.33;;;;;;;;;;5028568;28;20029;-83
2023/12/04 08:00:50;;;;;;;142.55;57.50;;;8.80;99.90;;;;;;5032433;28;20096;-83
2023/12/04 08:03:15;;;;;;;134.57;55.75;;;11.10;99.90;;;;;;5032164;28;20041;-82
2023/12/04 08:05:41;;;;;;;132.02;54.50;;;;;;;;;;5033336;28;20013;-83
2023/12/04 08:08:07;;;;;;;135.95;55.53;;;10.50;99.90;;;;;;5014576;28;20116;-83
2023/12/04 08:10:32;;;;;;;142.57;57.00;;;9.40;99.90;;;;;;5032517;28;20033;-83
2023/12/04 08:13:00;;;;;;;137.50;56.15;;;10.20;99.90;;;;;;5032327;28;20073;-82
2023/12/04 08:15:25;;;;;;;137.82;56.85;;;10.80;99.90;;;;;;5032314;28;20017;-82
2023/12/04 08:17:51;;;;;;;139.43;56.72;;;10.20;99.90;;;;;;5032208;28;20025;-83
2023/12/04 08:20:16;;;;;;;132.25;54.92;;;11.00;99.90;;;;;;5032221;28;20382;-82
2023/12/04 08:22:45;;;;;;;117.32;51.60;;;10.70;99.90;;;;;;5032990;28;20025;-82
2023/12/04 08:25:11;;;;;;;125.43;53.15;;;10.80;99.90;;;;;;5033097;28;20088;-82
2023/12/04 08:27:36;;;;;;;123.18;52.63;;;10.80;99.90;;;;;;5031932;28;20132;-83
2023/12/04 08:30:04;;;;;;;126.93;54.15;;;10.80;99.90;;;;;;5014316;28;20018;-82
2023/12/04 08:32:30;;;;;;;122.38;52.50;;;12.40;99.90;;;;;;5031922;28;20079;-83
2023/12/04 08:34:55;;;;;;;132.57;54.35;;;10.10;99.90;;;;;;5031875;28;20030;-82
2023/12/04 08:37:21;;;;;;;124.80;53.55;;;11.30;99.90;;;;;;5031838;28;20025;-82
2023/12/04 08:39:46;;;;;;;116.18;50.67;;;10.90;99.90;;;;;;5031993;28;20104;-82
2023/12/04 08:42:12;;;;;;;115.35;50.63;;;11.20;99.90;;;;;;5032829;28;20021;-82
2023/12/04 08:44:38;;;;;;;112.65;49.50;;;11.30;99.90;;;;;;5031744;28;20021;-81
2023/12/04 08:47:05;;;;;;;91.55;46.10;;;10.40;99.90;;;;;;5031751;28;20025;-82
2023/12/04 08:49:31;;;;;;;119.30;52.10;;;;;;;;;;5031784;28;20112;-82
2023/12/04 08:51:56;;;;;;;92.50;46.72;;;10.80;99.90;;;;;;5031612;28;20029;-82
2023/12/04 08:54:24;;;;;;;113.80;50.45;;;12.00;99.90;;;;;;5031795;28;20028;-82
2023/12/04 08:56:50;;;;;;;102.28;49.08;;;12.60;99.90;;;;;;5013858;28;20018;-82
2023/12/04 08:59:16;;;;;;;29.08;20.10;;;10.20;99.90;;;;;;5032256;28;20036;-82
2023/12/04 09:01:42;;;;;;;58.67;36.70;;;11.60;99.90;;;;;;5032170;28;20030;-82
2023/12/04 09:04:09;;;;;;;79.70;42.08;;;11.70;99.90;;;;;;5031486;28;20549;-82
2023/12/04 09:06:35;;;;;;;85.90;45.13;;;11.90;99.90;;;;;;5031434;28;20024;-82
2023/12/04 09:09:00;;;;;;;96.13;43.88;;;12.00;99.90;;;;;;5031209;28;20034;-82
2023/12/04 09:11:26;;;;;;;41.63;24.52;;;11.60;99.90;;;;;;5030816;28;20025;-82
2023/12/04 09:13:52;;;;;;;29.70;19.98;;;9.40;99.90;;;;;;5031148;28;20059;-82
2023/12/04 09:16:18;;;;;;;23.90;19.23;;;;;;;;;;5031510;28;20422;-82
2023/12/04 09:18:43;;;;;;;24.80;19.20;;;11.80;99.90;;;;;;5032020;28;20022;-82
2023/12/04 09:21:09;;;;;;;26.50;22.25;;;11.50;99.90;;;;;;5031196;28;20029;-82
2023/12/04 09:23:35;;;;;;;31.88;24.90;;;11.30;99.90;;;;;;5031065;28;20022;-82
2023/12/04 09:26:02;;;;;;;30.23;22.38;;;11.00;99.90;;;;;;5031068;28;20559;-81
2023/12/04 09:28:28;;;;;;;26.67;20.27;;;;;;;;;;5030796;28;20029;-81
2023/12/04 09:30:53;;;;;;;51.70;33.42;;;11.50;99.90;;;;;;5030824;28;20417;-81
2023/12/04 09:33:19;;;;;;;38.65;29.00;;;9.50;99.90;;;;;;5030988;28;20113;-81
2023/12/04 09:35:44;;;;;;;33.70;27.15;;;11.70;99.90;;;;;;5031674;28;20508;-81
2023/12/04 09:38:10;;;;;;;31.98;24.95;;;11.20;99.90;;;;;;5030684;28;20060;-81
2023/12/04 09:40:37;;;;;;;34.95;26.10;;;11.60;99.90;;;;;;5030780;28;20030;-81
2023/12/04 09:43:03;;;;;;;39.30;28.40;;;10.90;99.90;;;;;;5030631;28;20028;-82
2023/12/04 09:45:31;;;;;;;37.60;26.83;;;12.20;99.90;;;;;;5030936;28;20378;-82
2023/12/04 09:47:58;;;;;;;38.65;21.42;;;12.30;99.90;;;;;;5030643;28;20018;-82
2023/12/04 09:50:25;;;;;;;32.15;24.10;;;11.40;99.90;;;;;;5030667;28;20042;-82
2023/12/04 09:52:51;;;;;;;23.85;17.40;;;12.40;99.90;;;;;;5030506;28;20018;-81
2023/12/04 09:55:17;;;;;;;22.73;17.45;;;11.70;99.90;;;;;;5031302;28;20034;-82
2023/12/04 09:57:46;;;;;;;39.30;30.13;;;11.90;99.90;;;;;;5030425;28;20031;-82
2023/12/04 10:00:15;;;;;;;41.17;30.02;;;11.80;99.90;;;;;;5030334;28;20480;-82
2023/12/04 10:02:41;;;;;;;44.33;30.70;;;;;;;;;;5030182;28;20041;-85
2023/12/04 10:05:08;;;;;;;54.38;33.00;;;11.20;99.90;;;;;;5030128;28;20029;-85
2023/12/04 10:07:34;;;;;;;42.15;29.15;;;12.20;99.90;;;;;;5030115;28;20397;-83
2023/12/04 10:10:00;;;;;;;41.53;29.67;;;11.60;99.90;;;;;;5030154;28;20089;-81
2023/12/04 10:12:26;;;;;;;45.47;32.08;;;12.20;99.90;;;;;;5030167;28;20025;-81
2023/12/04 10:15:08;;;;;;;61.97;37.38;;;12.00;99.90;;;;;;5030066;28;20033;-81
2023/12/04 10:17:37;;;;;;;66.28;39.70;;;11.80;99.90;;;;;;5030142;28;20032;-81
2023/12/04 10:20:11;;;;;;;73.18;39.95;;;10.30;99.90;;;;;;5030009;28;20101;-81
2023/12/04 10:22:38;;;;;;;59.10;35.20;;;;;;;;;;5029161;28;20026;-81
2023/12/04 10:25:16;;;;;;;62.67;37.67;;;12.60;99.90;;;;;;5029928;28;20045;-81
2023/12/04 10:27:43;;;;;;;67.07;38.25;;;12.00;99.90;;;;;;5029788;28;20065;-81
2023/12/04 10:30:09;;;;;;;70.60;40.20;;;11.10;99.90;;;;;;5012032;28;20103;-81
2023/12/04 10:32:38;;;;;;;61.80;37.10;;;12.80;99.90;;;;;;5029828;28;20024;-83
2023/12/04 10:35:08;;;;;;;61.83;36.20;;;12.40;99.90;;;;;;5029357;28;20398;-81
2023/12/04 10:37:36;;;;;;;64.10;37.80;;;12.60;99.90;;;;;;5029803;28;20018;-82
2023/12/04 10:40:03;;;;;;;56.88;35.20;;;11.70;99.90;;;;;;5029766;28;20076;-81
2023/12/04 10:42:32;;;;;;;74.90;39.17;;;12.00;99.90;;;;;;5029662;28;20021;-82
2023/12/04 10:44:58;;;;;;;56.70;33.00;;;12.50;99.90;;;;;;5029601;28;20049;-81
2023/12/04 10:47:25;;;;;;;56.83;32.95;;;12.30;99.90;;;;;;5029346;28;20424;-82
2023/12/04 10:49:51;;;;;;;49.83;32.08;;;12.30;99.90;;;;;;5030247;28;20137;-81
2023/12/04 10:52:19;;;;;;;51.53;32.47;;;12.20;99.90;;;;;;5030269;28;20025;-81
2023/12/04 10:54:49;;;;;;;8.52;3.47;;;12.20;99.90;;;;;;5029485;28;20022;-82
2023/12/04 10:57:37;;;;;;;31.60;23.70;;;12.40;99.90;;;;;;5011571;28;20033;-82
2023/12/04 11:00:05;;;;;;;31.80;22.75;;;12.50;99.90;;;;;;5011601;28;20378;-81
2023/12/04 11:02:33;;;;;;;;;;;12.30;99.90;;;;;;5029571;28;20494;-81
2023/12/04 11:05:13;;;;;;;60.60;35.67;;;12.80;99.90;;;;;;5029246;28;19905;-82
2023/12/04 11:07:44;;;;;;;64.80;37.45;;;11.30;99.90;;;;;;5029153;28;20033;-81
2023/12/04 11:10:11;;;;;;;65.15;35.50;;;12.60;99.90;;;;;;5029167;28;20104;-81
2023/12/04 11:12:44;;;;;;;49.20;31.90;;;12.60;99.90;;;;;;5029001;28;20021;-81
2023/12/04 11:15:14;;;;;;;50.67;32.67;;;12.40;99.90;;;;;;5029145;28;20021;-82
2023/12/04 11:17:44;;;;;;;32.15;23.00;;;12.60;99.90;;;;;;5029174;28;20034;-82
2023/12/04 11:20:17;;;;;;;22.60;16.52;;;12.10;99.90;;;;;;5029092;28;20060;-82
2023/12/04 11:22:45;;;;;;;11.38;2.65;;;9.60;99.90;;;;;;5029136;28;20355;-82
2023/12/04 11:25:13;;;;;;;20.20;8.45;;;12.80;99.90;;;;;;5028963;28;20500;-82
2023/12/04 11:27:39;;;;;;;30.98;21.52;;;13.00;99.90;;;;;;5028893;28;20052;-82
2023/12/04 11:30:06;;;;;;;30.52;21.80;;;12.80;99.90;;;;;;5028967;28;20021;-81
2023/12/04 11:32:31;;;;;;;28.92;18.48;;;13.60;99.90;;;;;;5029134;28;20096;-82
2023/12/04 11:35:02;;;;;;;21.35;17.08;;;13.30;99.90;;;;;;5033202;28;20482;-82
2023/12/04 11:37:28;;;;;;;29.02;20.33;;;;;;;;;;5033043;28;20558;-83
2023/12/04 11:39:55;;;;;;;21.60;16.58;;;12.80;99.90;;;;;;5033767;28;20112;-82
2023/12/04 11:42:23;;;;;;;30.33;22.92;;;12.80;99.90;;;;;;5033907;28;20092;-82
2023/12/04 11:44:49;;;;;;;20.10;15.00;;;12.90;99.90;;;;;;5032785;28;20037;-82
2023/12/04 11:47:15;;;;;;;29.52;22.15;;;12.80;99.90;;;;;;5032780;28;20029;-82
2023/12/04 11:49:41;;;;;;;40.58;26.10;;;12.50;99.90;;;;;;5032856;28;20021;-82
2023/12/04 11:52:09;;;;;;;33.63;24.23;;;13.00;99.90;;;;;;5032673;28;20025;-82
2023/12/04 11:55:05;;;;;;;33.00;23.25;;;13.10;99.90;;;;;;5032680;28;20052;-82
2023/12/04 11:57:38;;;;;;;41.55;27.85;;;12.50;99.90;;;;;;5032735;28;20095;-81
2023/12/04 12:00:34;;;;;;;28.88;21.58;;;12.10;99.90;;;;;;5032660;28;20033;-82
2023/12/04 12:03:02;;;;;;;48.88;32.70;;;12.30;99.90;;;;;;5002672;28;20398;-82
2023/12/04 12:05:30;;;;;;;51.53;32.08;;;13.20;99.90;;;;;;5014984;28;20104;-82
2023/12/04 12:07:56;;;;;;;32.10;25.40;;;;;;;;;;5033313;28;20029;-82
2023/12/04 12:10:21;;;;;;;43.67;29.30;;;12.80;99.90;;;;;;5033387;28;20061;-82
2023/12/04 12:12:48;;;;;;;41.88;26.67;;;12.80;99.90;;;;;;5032403;28;20049;-82
2023/12/04 12:15:13;;;;;;;45.40;29.80;;;14.10;99.90;;;;;;5032257;28;20033;-83
2023/12/04 12:17:40;;;;;;;52.88;31.58;;;13.30;99.90;;;;;;5032376;28;20022;-82
2023/12/04 12:20:10;;;;;;;50.22;30.80;;;12.90;99.90;;;;;;5032338;28;20021;-82
2023/12/04 12:22:37;;;;;;;34.80;24.75;;;13.00;99.90;;;;;;5032217;28;20025;-82
2023/12/04 12:25:07;;;;;;;38.78;25.35;;;13.50;99.90;;;;;;5032332;28;20057;-82
2023/12/04 12:27:33;;;;;;;27.90;20.17;;;13.40;99.90;;;;;;5032019;28;20507;-82
2023/12/04 12:29:59;;;;;;;28.92;22.60;;;10.50;99.90;;;;;;5032148;28;20500;-82
2023/12/04 12:32:26;;;;;;;30.50;23.15;;;13.00;99.90;;;;;;5032866;28;20030;-83
2023/12/04 12:34:54;;;;;;;17.03;15.23;;;13.00;99.90;;;;;;5032340;28;20022;-82
2023/12/04 12:37:20;;;;;;;42.50;29.00;;;13.00;99.90;;;;;;5031950;28;20385;-82
2023/12/04 12:39:46;;;;;;;27.92;21.13;;;13.50;99.90;;;;;;5031980;28;20543;-82
2023/12/04 12:42:11;;;;;;;34.95;25.15;;;13.00;99.90;;;;;;5031874;28;20026;-82
2023/12/04 12:44:41;;;;;;;36.63;27.02;;;12.40;99.90;;;;;;5030910;28;20061;-82
2023/12/04 12:47:07;;;;;;;49.10;30.80;;;12.50;99.90;;;;;;5031758;28;20017;-81
2023/12/04 12:49:35;;;;;;;42.75;27.85;;;;;;;;;;5031728;28;20036;-82
2023/12/04 12:52:01;;;;;;;;;;;12.60;99.90;;;;;;5032079;28;20029;-82
2023/12/04 12:54:27;;;;;;;60.28;37.03;;;12.60;99.90;;;;;;5032394;28;19905;-82
2023/12/04 12:56:53;;;;;;;39.92;29.40;;;12.50;99.90;;;;;;5031382;28;20030;-82